createdAt,value
2017-02-09T00:00:04.129Z,24.31
2017-02-09T00:01:04.237Z,24.31
2017-02-09T00:02:04.244Z,24.27
2017-02-09T00:03:04.302Z,24.24
2017-02-09T00:04:04.202Z,24.22
2017-02-09T00:05:04.761Z,24.25
2017-02-09T00:06:04.220Z,24.22
2017-02-09T00:07:04.276Z,24.25
2017-02-09T00:08:04.231Z,24.2
2017-02-09T00:09:04.290Z,24.22
2017-02-09T00:10:04.549Z,24.13
2017-02-09T00:11:03.860Z,24.24
2017-02-09T00:12:04.350Z,24.1
2017-02-09T00:13:03.868Z,24.2
2017-02-09T00:14:04.225Z,24.18
2017-02-09T00:15:04.280Z,24.24
2017-02-09T00:16:04.435Z,24.22
2017-02-09T00:17:04.339Z,24.27
2017-02-09T00:18:05.204Z,24.22
2017-02-09T00:19:04.353Z,24.24
2017-02-09T00:20:04.490Z,24.2
2017-02-09T00:21:04.318Z,24.21
2017-02-09T00:22:04.272Z,24.21
2017-02-09T00:23:03.932Z,24.15
2017-02-09T00:24:04.383Z,24.15
2017-02-09T00:25:04.393Z,24.1
2017-02-09T00:26:04.301Z,24.18
2017-02-09T00:27:04.307Z,24.25
2017-02-09T00:28:04.311Z,24.13
2017-02-09T00:29:05.381Z,24.18
2017-02-09T00:30:04.375Z,24.13
2017-02-09T00:31:04.433Z,24.12
2017-02-09T00:32:04.388Z,24.1
2017-02-09T00:33:04.445Z,24.18
2017-02-09T00:34:04.400Z,24.09
2017-02-09T00:35:04.455Z,24.22
2017-02-09T00:36:04.068Z,24.21
2017-02-09T00:37:04.420Z,24.13
2017-02-09T00:38:04.379Z,24.08
2017-02-09T00:39:04.387Z,24.1
2017-02-09T00:40:05.143Z,24.06
2017-02-09T00:41:04.148Z,24.1
2017-02-09T00:42:04.259Z,24.13
2017-02-09T00:43:04.456Z,24.12
2017-02-09T00:44:04.515Z,24.2
2017-02-09T00:45:04.473Z,24.1
2017-02-09T00:46:04.530Z,24.12
2017-02-09T00:47:04.087Z,24.05
2017-02-09T00:48:04.491Z,24.03
2017-02-09T00:49:04.544Z,24.12
2017-02-09T00:50:04.153Z,24.05
2017-02-09T00:51:05.268Z,24.09
2017-02-09T00:52:04.565Z,23.97
2017-02-09T00:53:04.224Z,24.03
2017-02-09T00:54:04.475Z,23.93
2017-02-09T00:55:04.586Z,24.03
2017-02-09T00:56:04.592Z,24.05
2017-02-09T00:57:04.202Z,24.09
2017-02-09T00:58:04.499Z,23.95
2017-02-09T00:59:04.563Z,23.93
2017-02-09T01:00:04.564Z,24.03
2017-02-09T01:01:04.574Z,24.06
2017-02-09T01:02:04.732Z,24.09
2017-02-09T01:03:04.682Z,24.05
2017-02-09T01:04:04.595Z,23.97
2017-02-09T01:05:04.212Z,24.05
2017-02-09T01:06:05.454Z,23.97
2017-02-09T01:07:04.180Z,24.02
2017-02-09T01:08:04.668Z,24.02
2017-02-09T01:09:04.671Z,24.02
2017-02-09T01:10:04.628Z,23.97
2017-02-09T01:11:04.635Z,24.08
2017-02-09T01:12:04.692Z,24
2017-02-09T01:13:05.105Z,24
2017-02-09T01:14:04.647Z,23.97
2017-02-09T01:15:04.661Z,24.03
2017-02-09T01:16:04.714Z,24.06
2017-02-09T01:17:05.372Z,24.12
2017-02-09T01:18:04.633Z,24.05
2017-02-09T01:19:04.637Z,24.03
2017-02-09T01:20:04.640Z,24.13
2017-02-09T01:21:04.700Z,23.94
2017-02-09T01:22:04.755Z,24.03
2017-02-09T01:23:04.713Z,24.02
2017-02-09T01:24:04.821Z,24.06
2017-02-09T01:25:04.035Z,24.06
2017-02-09T01:26:04.681Z,24.05
2017-02-09T01:27:04.686Z,24.08
2017-02-09T01:28:05.495Z,24.05
2017-02-09T01:29:04.699Z,23.93
2017-02-09T01:30:04.431Z,24.08
2017-02-09T01:31:04.813Z,24.06
2017-02-09T01:32:03.976Z,24.1
2017-02-09T01:33:04.722Z,24
2017-02-09T01:34:04.730Z,24
2017-02-09T01:35:04.787Z,24.03
2017-02-09T01:36:04.393Z,24
2017-02-09T01:37:06.280Z,23.94
2017-02-09T01:38:04.407Z,24.06
2017-02-09T01:39:05.112Z,23.95
2017-02-09T01:40:04.870Z,24.02
2017-02-09T01:41:04.774Z,24.1
2017-02-09T01:42:04.777Z,24.02
2017-02-09T01:43:04.788Z,23.98
2017-02-09T01:44:19.373Z,24.06
2017-02-09T01:45:04.903Z,24.02
2017-02-09T01:46:04.876Z,24.08
2017-02-09T01:47:04.908Z,24.05
2017-02-09T01:48:04.423Z,24.03
2017-02-09T01:49:04.875Z,23.98
2017-02-09T01:50:05.132Z,24.02
2017-02-09T01:51:04.883Z,24.06
2017-02-09T01:52:04.548Z,24.05
2017-02-09T01:53:04.898Z,24
2017-02-09T01:54:04.905Z,24
2017-02-09T01:55:04.474Z,24.02
2017-02-09T01:56:04.965Z,23.97
2017-02-09T01:57:04.588Z,24.02
2017-02-09T01:58:04.981Z,24.03
2017-02-09T01:59:05.339Z,23.95
2017-02-09T02:00:04.893Z,24
2017-02-09T02:01:05.049Z,24
2017-02-09T02:02:04.559Z,23.97
2017-02-09T02:03:05.816Z,24
2017-02-09T02:04:04.969Z,24.02
2017-02-09T02:05:04.971Z,24.03
2017-02-09T02:06:04.933Z,24
2017-02-09T02:07:04.986Z,24.02
2017-02-09T02:08:04.947Z,24.06
2017-02-09T02:09:05.069Z,24.06
2017-02-09T02:10:05.053Z,24.02
2017-02-09T02:11:05.068Z,23.95
2017-02-09T02:12:05.266Z,23.9
2017-02-09T02:13:05.022Z,23.93
2017-02-09T02:14:19.514Z,23.93
2017-02-09T02:15:05.036Z,23.98
2017-02-09T02:16:05.042Z,24.03
2017-02-09T02:17:05.096Z,24.03
2017-02-09T02:18:05.111Z,24.02
2017-02-09T02:19:05.112Z,23.95
2017-02-09T02:20:05.066Z,23.95
2017-02-09T02:21:05.076Z,24.06
2017-02-09T02:22:05.030Z,23.93
2017-02-09T02:23:05.184Z,24.03
2017-02-09T02:24:05.092Z,24.06
2017-02-09T02:25:06.264Z,23.97
2017-02-09T02:26:04.756Z,24
2017-02-09T02:27:05.058Z,23.97
2017-02-09T02:29:05.126Z,24.02
2017-02-09T02:30:04.686Z,24.06
2017-02-09T02:31:05.585Z,24
2017-02-09T02:32:05.196Z,24
2017-02-09T02:33:05.200Z,24.02
2017-02-09T02:34:05.161Z,24.03
2017-02-09T02:35:05.213Z,24.06
2017-02-09T02:36:06.279Z,23.94
2017-02-09T02:37:04.730Z,23.97
2017-02-09T02:38:05.180Z,24
2017-02-09T02:39:05.187Z,24.03
2017-02-09T02:40:05.189Z,23.98
2017-02-09T02:41:05.200Z,23.95
2017-02-09T02:42:05.154Z,23.88
2017-02-09T02:43:05.259Z,23.88
2017-02-09T02:44:05.218Z,23.87
2017-02-09T02:45:05.228Z,23.9
2017-02-09T02:46:05.228Z,23.94
2017-02-09T02:47:05.728Z,24
2017-02-09T02:48:04.899Z,24
2017-02-09T02:49:05.004Z,24.02
2017-02-09T02:50:04.860Z,24.03
2017-02-09T02:51:05.309Z,23.98
2017-02-09T02:52:05.264Z,24.09
2017-02-09T02:53:05.262Z,24.02
2017-02-09T02:54:05.279Z,24.03
2017-02-09T02:55:05.285Z,24.03
2017-02-09T02:56:05.343Z,24.03
2017-02-09T02:57:05.304Z,24.06
2017-02-09T02:58:06.005Z,23.9
2017-02-09T02:59:05.017Z,23.98
2017-02-09T03:00:05.264Z,24
2017-02-09T03:01:05.373Z,23.98
2017-02-09T03:02:04.985Z,24.02
2017-02-09T03:03:04.990Z,24.05
2017-02-09T03:04:05.392Z,24.06
2017-02-09T03:05:05.299Z,24.05
2017-02-09T03:06:04.957Z,24.08
2017-02-09T03:07:05.362Z,23.98
2017-02-09T03:08:05.316Z,23.98
2017-02-09T03:09:06.125Z,24.05
2017-02-09T03:10:04.937Z,24.06
2017-02-09T03:11:05.438Z,23.98
2017-02-09T03:12:05.000Z,23.98
2017-02-09T03:13:05.398Z,24
2017-02-09T03:14:05.504Z,24.09
2017-02-09T03:15:05.410Z,24.03
2017-02-09T03:16:05.070Z,24.03
2017-02-09T03:17:05.077Z,24.06
2017-02-09T03:18:05.378Z,23.94
2017-02-09T03:19:05.487Z,24.05
2017-02-09T03:20:05.925Z,23.97
2017-02-09T03:21:05.398Z,24.02
2017-02-09T03:22:05.454Z,23.97
2017-02-09T03:23:05.017Z,24
2017-02-09T03:24:05.467Z,23.97
2017-02-09T03:25:06.172Z,24.02
2017-02-09T03:26:05.043Z,24.03
2017-02-09T03:27:05.482Z,24.05
2017-02-09T03:28:05.444Z,24.09
2017-02-09T03:29:05.550Z,23.98
2017-02-09T03:30:05.552Z,24.12
2017-02-09T03:31:05.962Z,24.16
2017-02-09T03:32:05.471Z,24.13
2017-02-09T03:33:05.525Z,24.1
2017-02-09T03:34:05.580Z,24.09
2017-02-09T03:35:06.041Z,24.02
2017-02-09T03:36:05.594Z,24.08
2017-02-09T03:37:05.205Z,24.1
2017-02-09T03:38:05.605Z,24.05
2017-02-09T03:39:05.512Z,24.09
2017-02-09T03:40:05.568Z,24.05
2017-02-09T03:41:05.523Z,24.1
2017-02-09T03:42:06.442Z,24.18
2017-02-09T03:43:05.586Z,24.13
2017-02-09T03:44:07.017Z,24.12
2017-02-09T03:45:05.653Z,24.05
2017-02-09T03:46:05.906Z,24.05
2017-02-09T03:47:05.664Z,24.13
2017-02-09T03:48:05.623Z,24.15
2017-02-09T03:49:05.582Z,24.18
2017-02-09T03:50:05.634Z,24.13
2017-02-09T03:51:05.639Z,24.1
2017-02-09T03:52:05.642Z,24.09
2017-02-09T03:53:05.652Z,24.16
2017-02-09T03:54:05.661Z,24.12
2017-02-09T03:55:06.796Z,24.06
2017-02-09T03:56:05.669Z,24.12
2017-02-09T03:57:05.779Z,24.09
2017-02-09T03:58:04.841Z,24.08
2017-02-09T03:59:05.693Z,24.09
2017-02-09T04:00:05.743Z,24.09
2017-02-09T04:01:05.703Z,24.06
2017-02-09T04:02:05.312Z,24
2017-02-09T04:03:05.369Z,24.05
2017-02-09T04:04:05.386Z,24.03
2017-02-09T04:05:05.677Z,24.06
2017-02-09T04:06:06.539Z,24.13
2017-02-09T04:07:05.740Z,24.08
2017-02-09T04:08:05.698Z,23.94
2017-02-09T04:09:05.704Z,24.09
2017-02-09T04:10:05.757Z,24.16
2017-02-09T04:11:05.816Z,24.1
2017-02-09T04:12:05.819Z,24.06
2017-02-09T04:13:05.332Z,24.05
2017-02-09T04:14:05.786Z,24.08
2017-02-09T04:15:05.790Z,24.02
2017-02-09T04:16:05.799Z,23.98
2017-02-09T04:17:06.502Z,23.98
2017-02-09T04:18:05.860Z,24.09
2017-02-09T04:19:05.819Z,24.13
2017-02-09T04:20:05.429Z,24.1
2017-02-09T04:21:06.550Z,24.13
2017-02-09T04:22:05.833Z,24.16
2017-02-09T04:23:05.449Z,24.13
2017-02-09T04:24:05.846Z,24.06
2017-02-09T04:25:05.805Z,24.13
2017-02-09T04:26:05.863Z,24.13
2017-02-09T04:27:05.522Z,24.09
2017-02-09T04:28:05.589Z,24.12
2017-02-09T04:29:05.883Z,24.2
2017-02-09T04:30:05.890Z,24.1
2017-02-09T04:31:05.942Z,24.12
2017-02-09T04:32:06.447Z,24.09
2017-02-09T04:33:06.008Z,24.05
2017-02-09T04:34:05.971Z,24.06
2017-02-09T04:35:05.916Z,24.18
2017-02-09T04:36:06.008Z,24.09
2017-02-09T04:37:05.981Z,24.03
2017-02-09T04:38:05.937Z,24.12
2017-02-09T04:39:05.993Z,24.16
2017-02-09T04:40:05.997Z,24.1
2017-02-09T04:41:06.955Z,24.06
2017-02-09T04:42:06.019Z,24.03
2017-02-09T04:43:06.419Z,24.06
2017-02-09T04:44:05.976Z,24.02
2017-02-09T04:45:06.080Z,24.08
2017-02-09T04:46:06.038Z,24.08
2017-02-09T04:47:06.040Z,24.16
2017-02-09T04:48:06.001Z,24.18
2017-02-09T04:49:06.055Z,24.13
2017-02-09T04:50:06.067Z,24.1
2017-02-09T04:51:05.970Z,24.08
2017-02-09T04:52:07.327Z,24.09
2017-02-09T04:53:06.032Z,24.03
2017-02-09T04:54:05.844Z,24.08
2017-02-09T04:55:06.091Z,24.05
2017-02-09T04:56:06.054Z,24
2017-02-09T04:57:06.103Z,24.02
2017-02-09T04:58:06.114Z,24.18
2017-02-09T04:59:06.321Z,24.13
2017-02-09T05:00:06.124Z,24.13
2017-02-09T05:01:05.735Z,24.12
2017-02-09T05:02:06.091Z,24.08
2017-02-09T05:03:07.196Z,24.05
2017-02-09T05:04:06.150Z,24.03
2017-02-09T05:05:05.912Z,24.06
2017-02-09T05:06:05.768Z,23.97
2017-02-09T05:07:07.221Z,24.06
2017-02-09T05:08:06.127Z,24.09
2017-02-09T05:09:06.181Z,24.05
2017-02-09T05:10:05.792Z,24.08
2017-02-09T05:11:06.197Z,24.02
2017-02-09T05:12:06.150Z,24.06
2017-02-09T05:13:06.259Z,24.15
2017-02-09T05:14:07.317Z,24.08
2017-02-09T05:15:06.270Z,24.05
2017-02-09T05:16:06.176Z,24
2017-02-09T05:17:06.229Z,24.1
2017-02-09T05:18:07.366Z,24.05
2017-02-09T05:19:06.294Z,24.05
2017-02-09T05:20:06.257Z,24.08
2017-02-09T05:21:05.820Z,24.06
2017-02-09T05:22:06.267Z,24.06
2017-02-09T05:23:06.220Z,24.02
2017-02-09T05:24:06.275Z,24.18
2017-02-09T05:25:05.884Z,24.16
2017-02-09T05:26:05.892Z,24.13
2017-02-09T05:27:06.297Z,24.08
2017-02-09T05:28:06.199Z,24.08
2017-02-09T05:29:07.566Z,24.08
2017-02-09T05:30:06.278Z,24.16
2017-02-09T05:31:05.974Z,24.21
2017-02-09T05:32:06.333Z,24.15
2017-02-09T05:33:06.631Z,24.05
2017-02-09T05:34:06.290Z,24.05
2017-02-09T05:35:06.602Z,24.09
2017-02-09T05:36:05.909Z,24.1
2017-02-09T05:37:05.959Z,24.02
2017-02-09T05:38:06.266Z,23.97
2017-02-09T05:39:06.317Z,24.13
2017-02-09T05:40:07.505Z,24.05
2017-02-09T05:41:06.380Z,24.08
2017-02-09T05:42:06.386Z,23.98
2017-02-09T05:43:06.445Z,24.02
2017-02-09T05:44:06.448Z,24.03
2017-02-09T05:45:06.009Z,24.09
2017-02-09T05:46:06.361Z,24.08
2017-02-09T05:47:05.526Z,24.08
2017-02-09T05:48:06.328Z,24.05
2017-02-09T05:49:06.385Z,24.06
2017-02-09T05:50:06.438Z,24.02
2017-02-09T05:51:05.949Z,24.1
2017-02-09T05:52:05.661Z,24.09
2017-02-09T05:53:06.507Z,24.05
2017-02-09T05:54:06.514Z,23.98
2017-02-09T05:55:06.922Z,24.18
2017-02-09T05:56:06.474Z,24.13
2017-02-09T05:57:06.432Z,24.12
2017-02-09T05:58:06.537Z,24.18
2017-02-09T05:59:06.052Z,24.15
2017-02-09T06:00:06.459Z,24.03
2017-02-09T06:01:06.193Z,24.08
2017-02-09T06:02:06.935Z,24
2017-02-09T06:03:06.572Z,23.98
2017-02-09T06:04:06.525Z,23.94
2017-02-09T06:05:06.535Z,24
2017-02-09T06:06:06.485Z,24.02
2017-02-09T06:07:06.596Z,23.98
2017-02-09T06:08:06.505Z,24.02
2017-02-09T06:09:06.458Z,24.08
2017-02-09T06:10:06.562Z,24.05
2017-02-09T06:11:06.528Z,24.05
2017-02-09T06:12:06.630Z,24.03
2017-02-09T06:13:07.388Z,23.97
2017-02-09T06:14:06.587Z,24.08
2017-02-09T06:15:06.155Z,23.95
2017-02-09T06:16:06.207Z,24.02
2017-02-09T06:17:06.506Z,24.12
2017-02-09T06:18:06.271Z,24.09
2017-02-09T06:19:06.619Z,24.12
2017-02-09T06:20:06.582Z,24.08
2017-02-09T06:21:06.595Z,24.09
2017-02-09T06:22:06.191Z,24.05
2017-02-09T06:23:06.699Z,24.03
2017-02-09T06:24:07.504Z,23.98
2017-02-09T06:25:06.659Z,24
2017-02-09T06:26:06.220Z,24.08
2017-02-09T06:27:06.723Z,24.03
2017-02-09T06:28:06.682Z,24.08
2017-02-09T06:29:06.241Z,24
2017-02-09T06:30:06.687Z,24.1
2017-02-09T06:31:06.699Z,24
2017-02-09T06:32:06.652Z,24.06
2017-02-09T06:33:06.710Z,24.05
2017-02-09T06:34:06.771Z,24.08
2017-02-09T06:35:07.270Z,24.08
2017-02-09T06:36:06.726Z,24.08
2017-02-09T06:37:06.685Z,24
2017-02-09T06:38:06.738Z,24.06
2017-02-09T06:39:06.744Z,24.02
2017-02-09T06:40:06.805Z,24.02
2017-02-09T06:41:06.659Z,23.97
2017-02-09T06:42:06.764Z,24.02
2017-02-09T06:43:06.822Z,24.03
2017-02-09T06:44:06.780Z,24
2017-02-09T06:45:06.792Z,24.02
2017-02-09T06:46:07.094Z,23.97
2017-02-09T06:47:06.353Z,24
2017-02-09T06:48:07.778Z,24.06
2017-02-09T06:49:06.858Z,24.06
2017-02-09T06:50:07.266Z,24.03
2017-02-09T06:51:06.427Z,24.06
2017-02-09T06:52:06.826Z,24.06
2017-02-09T06:53:06.887Z,24.05
2017-02-09T06:54:06.888Z,24.09
2017-02-09T06:55:06.450Z,23.95
2017-02-09T06:56:06.505Z,24.02
2017-02-09T06:57:06.963Z,24.09
2017-02-09T06:58:06.762Z,24.08
2017-02-09T06:59:06.377Z,24.13
2017-02-09T07:00:06.878Z,24.12
2017-02-09T07:01:07.483Z,24.16
2017-02-09T07:02:06.940Z,24.05
2017-02-09T07:03:06.894Z,24.15
2017-02-09T07:04:06.857Z,24.15
2017-02-09T07:05:06.908Z,24.09
2017-02-09T07:06:06.520Z,24.05
2017-02-09T07:07:06.919Z,24.12
2017-02-09T07:08:06.923Z,23.98
2017-02-09T07:09:06.093Z,24.08
2017-02-09T07:10:07.915Z,24.12
2017-02-09T07:11:06.898Z,24.15
2017-02-09T07:12:07.400Z,24.16
2017-02-09T07:13:06.955Z,24.22
2017-02-09T07:14:07.016Z,24.15
2017-02-09T07:15:06.525Z,24.09
2017-02-09T07:16:06.928Z,24.06
2017-02-09T07:17:06.983Z,24.05
2017-02-09T07:18:06.986Z,24.15
2017-02-09T07:19:06.941Z,24.12
2017-02-09T07:20:07.002Z,24.08
2017-02-09T07:21:08.152Z,23.97
2017-02-09T07:22:06.963Z,24.08
2017-02-09T07:23:07.069Z,24.05
2017-02-09T07:24:06.976Z,24.05
2017-02-09T07:25:06.931Z,24.09
2017-02-09T07:26:07.089Z,24.09
2017-02-09T07:27:07.091Z,24.1
2017-02-09T07:28:07.129Z,24.12
2017-02-09T07:29:07.005Z,24.13
2017-02-09T07:30:07.149Z,24.09
2017-02-09T07:31:07.071Z,24.15
2017-02-09T07:32:08.124Z,24.13
2017-02-09T07:33:06.743Z,24.12
2017-02-09T07:34:07.091Z,24.21
2017-02-09T07:35:07.100Z,24.34
2017-02-09T07:36:06.705Z,24.47
2017-02-09T07:37:07.156Z,24.62
2017-02-09T07:38:07.067Z,24.8
2017-02-09T07:39:07.069Z,24.9
2017-02-09T07:40:07.080Z,24.96
2017-02-09T07:41:07.130Z,25.09
2017-02-09T07:42:06.741Z,25.18
2017-02-09T07:43:08.097Z,25.27
2017-02-09T07:44:07.148Z,25.43
2017-02-09T07:45:07.115Z,25.52
2017-02-09T07:46:06.819Z,25.61
2017-02-09T07:47:08.274Z,25.69
2017-02-09T07:48:07.127Z,25.75
2017-02-09T07:49:07.182Z,25.77
2017-02-09T07:50:07.691Z,25.91
2017-02-09T07:51:07.190Z,26.13
2017-02-09T07:52:07.203Z,26.06
2017-02-09T07:53:06.814Z,26.06
2017-02-09T07:54:07.169Z,26.15
2017-02-09T07:55:07.225Z,26.18
2017-02-09T07:56:07.127Z,26.13
2017-02-09T07:57:07.293Z,26.25
2017-02-09T07:58:08.243Z,26.18
2017-02-09T07:59:07.286Z,26.21
2017-02-09T08:00:06.514Z,26.25
2017-02-09T08:01:07.216Z,26.23
2017-02-09T08:02:07.218Z,26.32
2017-02-09T08:03:07.225Z,26.45
2017-02-09T08:04:07.383Z,26.54
2017-02-09T08:05:06.895Z,26.52
2017-02-09T08:06:07.344Z,26.54
2017-02-09T08:07:07.156Z,26.55
2017-02-09T08:08:06.915Z,26.5
2017-02-09T08:09:08.118Z,26.52
2017-02-09T08:10:07.282Z,26.6
2017-02-09T08:11:06.888Z,26.52
2017-02-09T08:12:07.242Z,26.5
2017-02-09T08:13:07.343Z,26.45
2017-02-09T08:14:07.357Z,26.54
2017-02-09T08:15:07.357Z,26.48
2017-02-09T08:16:07.319Z,26.45
2017-02-09T08:17:07.374Z,26.37
2017-02-09T08:18:06.984Z,26.45
2017-02-09T08:19:07.430Z,26.51
2017-02-09T08:20:08.153Z,26.45
2017-02-09T08:21:07.404Z,26.55
2017-02-09T08:22:07.360Z,26.51
2017-02-09T08:23:07.023Z,26.45
2017-02-09T08:24:07.374Z,26.48
2017-02-09T08:25:07.380Z,26.48
2017-02-09T08:26:07.486Z,26.51
2017-02-09T08:27:07.054Z,26.36
2017-02-09T08:28:07.452Z,26.45
2017-02-09T08:29:07.412Z,26.51
2017-02-09T08:30:07.419Z,26.57
2017-02-09T08:31:07.924Z,26.58
2017-02-09T08:32:07.533Z,26.52
2017-02-09T08:33:07.092Z,26.51
2017-02-09T08:34:07.397Z,26.55
2017-02-09T08:35:07.109Z,26.52
2017-02-09T08:36:07.114Z,26.44
2017-02-09T08:37:07.022Z,26.52
2017-02-09T08:38:07.436Z,26.57
2017-02-09T08:39:07.484Z,26.55
2017-02-09T08:40:07.568Z,26.52
2017-02-09T08:41:07.545Z,26.47
2017-02-09T08:42:08.057Z,26.5
2017-02-09T08:43:07.066Z,26.43
2017-02-09T08:44:07.570Z,26.35
2017-02-09T08:45:07.529Z,26.45
2017-02-09T08:46:07.185Z,26.57
2017-02-09T08:47:07.640Z,26.52
2017-02-09T08:48:07.200Z,26.35
2017-02-09T08:49:07.505Z,26.37
2017-02-09T08:50:07.560Z,26.47
2017-02-09T08:51:07.273Z,26.5
2017-02-09T08:52:07.625Z,26.58
2017-02-09T08:53:07.882Z,26.44
2017-02-09T08:54:07.592Z,26.67
2017-02-09T08:55:08.608Z,26.7
2017-02-09T08:56:07.604Z,26.67
2017-02-09T08:57:07.717Z,26.55
2017-02-09T08:58:07.675Z,26.51
2017-02-09T08:59:07.676Z,26.52
2017-02-09T09:00:07.738Z,26.48
2017-02-09T09:01:07.693Z,26.58
2017-02-09T09:02:07.309Z,26.51
2017-02-09T09:03:07.711Z,26.55
2017-02-09T09:04:07.522Z,26.54
2017-02-09T09:05:07.673Z,26.51
2017-02-09T09:06:08.862Z,26.58
2017-02-09T09:07:07.340Z,26.65
2017-02-09T09:08:07.300Z,26.6
2017-02-09T09:09:07.752Z,26.55
2017-02-09T09:10:07.809Z,26.63
2017-02-09T09:11:07.714Z,26.69
2017-02-09T09:12:07.722Z,26.63
2017-02-09T09:13:07.782Z,26.69
2017-02-09T09:14:07.740Z,26.73
2017-02-09T09:15:07.847Z,26.63
2017-02-09T09:16:07.855Z,26.72
2017-02-09T09:17:07.414Z,26.66
2017-02-09T09:18:07.376Z,26.76
2017-02-09T09:19:08.179Z,26.63
2017-02-09T09:20:07.391Z,26.8
2017-02-09T09:21:07.791Z,26.85
2017-02-09T09:22:07.900Z,26.82
2017-02-09T09:23:07.861Z,26.82
2017-02-09T09:24:07.914Z,26.63
2017-02-09T09:25:07.818Z,26.8
2017-02-09T09:26:07.588Z,26.81
2017-02-09T09:27:07.837Z,26.82
2017-02-09T09:28:09.100Z,26.72
2017-02-09T09:29:07.507Z,26.84
2017-02-09T09:30:08.013Z,26.84
2017-02-09T09:31:07.818Z,26.84
2017-02-09T09:32:07.973Z,26.81
2017-02-09T09:33:07.934Z,26.84
2017-02-09T09:34:07.591Z,26.65
2017-02-09T09:35:07.599Z,26.63
2017-02-09T09:36:07.851Z,26.65
2017-02-09T09:37:08.015Z,26.69
2017-02-09T09:38:08.018Z,26.75
2017-02-09T09:39:09.025Z,26.75
2017-02-09T09:40:07.985Z,26.69
2017-02-09T09:41:07.695Z,26.72
2017-02-09T09:42:08.000Z,26.69
2017-02-09T09:43:07.912Z,26.69
2017-02-09T09:44:08.017Z,26.72
2017-02-09T09:45:08.019Z,26.77
2017-02-09T09:46:08.030Z,26.69
2017-02-09T09:47:07.985Z,26.65
2017-02-09T09:48:08.108Z,26.73
2017-02-09T09:49:08.002Z,26.66
2017-02-09T09:50:08.812Z,26.67
2017-02-09T09:51:07.678Z,26.63
2017-02-09T09:52:08.075Z,26.67
2017-02-09T09:53:08.032Z,26.73
2017-02-09T09:54:07.700Z,26.63
2017-02-09T09:55:08.097Z,26.67
2017-02-09T09:56:08.112Z,26.54
2017-02-09T09:57:08.014Z,26.67
2017-02-09T09:58:08.120Z,26.7
2017-02-09T09:59:08.026Z,26.63
2017-02-09T10:00:08.189Z,26.7
2017-02-09T10:01:08.345Z,26.77
2017-02-09T10:02:08.156Z,26.84
2017-02-09T10:03:07.319Z,26.7
2017-02-09T10:04:08.120Z,26.66
2017-02-09T10:05:08.426Z,26.69
2017-02-09T10:06:07.788Z,26.67
2017-02-09T10:07:08.137Z,26.6
2017-02-09T10:08:07.798Z,26.67
2017-02-09T10:09:07.713Z,26.47
2017-02-09T10:10:07.765Z,26.7
2017-02-09T10:11:07.821Z,26.6
2017-02-09T10:12:07.778Z,26.66
2017-02-09T10:13:08.233Z,26.63
2017-02-09T10:14:09.521Z,26.75
2017-02-09T10:15:08.149Z,26.77
2017-02-09T10:16:08.408Z,26.75
2017-02-09T10:17:08.211Z,26.7
2017-02-09T10:18:08.320Z,26.67
2017-02-09T10:19:07.834Z,26.63
2017-02-09T10:20:08.336Z,26.66
2017-02-09T10:21:08.243Z,26.63
2017-02-09T10:22:08.301Z,26.73
2017-02-09T10:23:08.313Z,26.75
2017-02-09T10:24:08.317Z,26.75
2017-02-09T10:25:09.481Z,26.76
2017-02-09T10:26:08.232Z,26.75
2017-02-09T10:27:08.340Z,26.76
2017-02-09T10:28:08.433Z,26.67
2017-02-09T10:29:08.302Z,26.63
2017-02-09T10:30:08.267Z,26.66
2017-02-09T10:31:08.374Z,26.65
2017-02-09T10:32:07.931Z,26.75
2017-02-09T10:33:08.330Z,26.8
2017-02-09T10:34:08.371Z,26.66
2017-02-09T10:35:08.058Z,26.82
2017-02-09T10:36:09.277Z,26.67
2017-02-09T10:37:08.067Z,26.7
2017-02-09T10:38:08.429Z,26.67
2017-02-09T10:39:08.482Z,26.81
2017-02-09T10:40:07.939Z,26.65
2017-02-09T10:41:08.005Z,26.82
2017-02-09T10:42:08.310Z,26.77
2017-02-09T10:43:08.461Z,26.8
2017-02-09T10:44:22.506Z,26.73
2017-02-09T10:45:08.526Z,26.72
2017-02-09T10:46:08.536Z,26.77
2017-02-09T10:47:09.091Z,26.82
2017-02-09T10:48:08.002Z,26.75
2017-02-09T10:49:08.460Z,26.76
2017-02-09T10:50:08.117Z,26.8
2017-02-09T10:51:09.229Z,26.76
2017-02-09T10:52:08.581Z,26.77
2017-02-09T10:53:08.191Z,26.82
2017-02-09T10:54:08.498Z,26.84
2017-02-09T10:55:08.187Z,26.8
2017-02-09T10:56:08.515Z,26.8
2017-02-09T10:57:08.619Z,26.76
2017-02-09T10:58:08.979Z,26.77
2017-02-09T10:59:08.583Z,26.65
2017-02-09T11:00:08.146Z,26.69
2017-02-09T11:01:08.651Z,26.65
2017-02-09T11:02:08.662Z,26.65
2017-02-09T11:03:08.714Z,26.85
2017-02-09T11:04:08.575Z,26.65
2017-02-09T11:05:08.579Z,26.5
2017-02-09T11:06:08.592Z,26.54
2017-02-09T11:07:08.596Z,26.54
2017-02-09T11:08:08.706Z,26.51
2017-02-09T11:09:08.561Z,26.69
2017-02-09T11:10:08.621Z,26.67
2017-02-09T11:11:09.601Z,26.5
2017-02-09T11:12:08.188Z,26.47
2017-02-09T11:13:09.091Z,26.48
2017-02-09T11:14:08.695Z,26.65
2017-02-09T11:15:08.654Z,26.67
2017-02-09T11:16:08.715Z,26.7
2017-02-09T11:17:08.737Z,26.54
2017-02-09T11:18:08.731Z,26.48
2017-02-09T11:19:08.733Z,26.54
2017-02-09T11:20:08.295Z,26.5
2017-02-09T11:21:08.751Z,26.5
2017-02-09T11:22:10.039Z,26.54
2017-02-09T11:23:08.715Z,26.47
2017-02-09T11:24:08.976Z,26.37
2017-02-09T11:25:08.732Z,26.5
2017-02-09T11:26:08.839Z,26.52
2017-02-09T11:27:08.799Z,26.43
2017-02-09T11:28:08.361Z,26.44
2017-02-09T11:29:08.815Z,26.52
2017-02-09T11:30:08.883Z,26.45
2017-02-09T11:31:08.827Z,26.47
2017-02-09T11:32:08.787Z,26.5
2017-02-09T11:33:09.923Z,26.5
2017-02-09T11:34:08.876Z,26.51
2017-02-09T11:35:08.878Z,26.47
2017-02-09T11:36:08.889Z,26.65
2017-02-09T11:37:08.876Z,26.44
2017-02-09T11:38:08.883Z,26.63
2017-02-09T11:39:09.438Z,26.62
2017-02-09T11:40:08.847Z,26.54
2017-02-09T11:41:08.855Z,26.54
2017-02-09T11:42:08.912Z,26.57
2017-02-09T11:43:08.869Z,26.57
2017-02-09T11:44:09.240Z,26.47
2017-02-09T11:45:08.987Z,26.57
2017-02-09T11:46:08.942Z,26.55
2017-02-09T11:47:08.955Z,26.47
2017-02-09T11:48:09.622Z,26.51
2017-02-09T11:49:09.019Z,26.5
2017-02-09T11:50:08.928Z,26.57
2017-02-09T11:51:08.587Z,26.48
2017-02-09T11:52:09.255Z,26.43
2017-02-09T11:53:08.497Z,26.32
2017-02-09T11:54:09.035Z,26.36
2017-02-09T11:55:08.961Z,26.33
2017-02-09T11:56:09.020Z,26.45
2017-02-09T11:57:08.679Z,26.45
2017-02-09T11:58:09.734Z,26.5
2017-02-09T11:59:10.090Z,26.4
2017-02-09T12:00:09.051Z,26.45
2017-02-09T12:01:09.107Z,26.4
2017-02-09T12:02:08.273Z,26.48
2017-02-09T12:03:09.123Z,26.4
2017-02-09T12:04:09.129Z,26.39
2017-02-09T12:05:09.097Z,26.39
2017-02-09T12:06:09.147Z,26.44
2017-02-09T12:07:09.104Z,26.5
2017-02-09T12:08:09.112Z,26.47
2017-02-09T12:09:09.070Z,26.69
2017-02-09T12:10:09.533Z,26.7
2017-02-09T12:11:08.787Z,26.67
2017-02-09T12:12:09.447Z,26.6
2017-02-09T12:13:09.148Z,26.5
2017-02-09T12:14:08.709Z,26.51
2017-02-09T12:15:09.262Z,26.29
2017-02-09T12:16:08.381Z,26.39
2017-02-09T12:17:09.179Z,26.28
2017-02-09T12:18:09.243Z,26.3
2017-02-09T12:19:09.144Z,26.45
2017-02-09T12:20:09.151Z,26.33
2017-02-09T12:21:09.807Z,26.4
2017-02-09T12:22:09.223Z,26.35
2017-02-09T12:23:09.177Z,26.4
2017-02-09T12:24:09.234Z,26.33
2017-02-09T12:25:09.241Z,26.39
2017-02-09T12:26:09.853Z,26.39
2017-02-09T12:27:09.206Z,26.39
2017-02-09T12:28:08.823Z,26.55
2017-02-09T12:29:09.172Z,26.62
2017-02-09T12:30:10.200Z,26.6
2017-02-09T12:31:09.235Z,26.52
2017-02-09T12:32:09.543Z,26.63
2017-02-09T12:33:09.303Z,26.51
2017-02-09T12:34:10.239Z,26.52
2017-02-09T12:35:08.871Z,26.44
2017-02-09T12:36:08.929Z,26.5
2017-02-09T12:37:08.885Z,26.54
2017-02-09T12:38:09.389Z,26.4
2017-02-09T12:39:09.297Z,26.52
2017-02-09T12:40:08.911Z,26.44
2017-02-09T12:41:09.362Z,26.45
2017-02-09T12:42:09.006Z,26.54
2017-02-09T12:43:09.377Z,26.57
2017-02-09T12:44:09.437Z,26.45
2017-02-09T12:45:10.499Z,26.4
2017-02-09T12:46:09.406Z,26.44
2017-02-09T12:47:09.411Z,26.29
2017-02-09T12:48:09.416Z,26.45
2017-02-09T12:49:09.443Z,26.35
2017-02-09T12:50:09.035Z,26.21
2017-02-09T12:51:09.496Z,26.47
2017-02-09T12:52:09.501Z,26.5
2017-02-09T12:53:09.508Z,26.47
2017-02-09T12:54:09.317Z,26.35
2017-02-09T12:55:09.074Z,26.37
2017-02-09T12:56:10.132Z,26.36
2017-02-09T12:57:09.485Z,26.4
2017-02-09T12:58:09.491Z,26.3
2017-02-09T12:59:09.500Z,26.3